sensor_id;sensor_type;location;lat;lon;timestamp;temperature;humidity
13754;DHT22;6948;51.216;6.778;2023-05-07T00:01:16;17.10;99.90
13754;DHT22;6948;51.216;6.778;2023-05-07T00:03:42;17.20;99.90
13754;DHT22;6948;51.216;6.778;2023-05-07T00:06:07;17.20;99.90
13754;DHT22;6948;51.216;6.778;2023-05-07T00:08:33;17.20;99.90
13754;DHT22;6948;51.216;6.778;2023-05-07T00:10:59;17.20;99.90
13754;DHT22;6948;51.216;6.778;2023-05-07T00:13:24;17.20;99.90
13754;DHT22;6948;51.216;6.778;2023-05-07T00:15:50;17.20;99.90
13754;DHT22;6948;51.216;6.778;2023-05-07T00:18:15;17.20;99.90
13754;DHT22;6948;51.216;6.778;2023-05-07T00:20:41;17.10;99.90
13754;DHT22;6948;51.216;6.778;2023-05-07T00:23:07;17.10;99.90
13754;DHT22;6948;51.216;6.778;2023-05-07T00:25:32;17.10;99.90
13754;DHT22;6948;51.216;6.778;2023-05-07T00:27:58;17.10;99.90
13754;DHT22;6948;51.216;6.778;2023-05-07T00:30:29;17.10;99.90
13754;DHT22;6948;51.216;6.778;2023-05-07T00:32:54;17.00;99.90
13754;DHT22;6948;51.216;6.778;2023-05-07T00:35:20;16.90;99.90
13754;DHT22;6948;51.216;6.778;2023-05-07T00:37:46;16.90;99.90
13754;DHT22;6948;51.216;6.778;2023-05-07T00:40:11;16.80;99.90
13754;DHT22;6948;51.216;6.778;2023-05-07T00:42:37;16.70;99.90
13754;DHT22;6948;51.216;6.778;2023-05-07T00:45:03;16.60;99.90
13754;DHT22;6948;51.216;6.778;2023-05-07T00:47:29;16.70;99.90
13754;DHT22;6948;51.216;6.778;2023-05-07T00:49:56;16.80;99.90
13754;DHT22;6948;51.216;6.778;2023-05-07T00:52:25;16.90;99.90
13754;DHT22;6948;51.216;6.778;2023-05-07T00:54:51;16.90;99.90
13754;DHT22;6948;51.216;6.778;2023-05-07T00:57:17;16.80;99.90
13754;DHT22;6948;51.216;6.778;2023-05-07T00:59:43;16.80;99.90
13754;DHT22;6948;51.216;6.778;2023-05-07T01:02:09;16.80;99.90
13754;DHT22;6948;51.216;6.778;2023-05-07T01:04:36;16.80;99.90
13754;DHT22;6948;51.216;6.778;2023-05-07T01:07:02;16.80;99.90
13754;DHT22;6948;51.216;6.778;2023-05-07T01:09:28;16.70;99.90
13754;DHT22;6948;51.216;6.778;2023-05-07T01:11:55;16.70;99.90
13754;DHT22;6948;51.216;6.778;2023-05-07T01:14:22;16.70;99.90
13754;DHT22;6948;51.216;6.778;2023-05-07T01:16:48;16.70;99.90
13754;DHT22;6948;51.216;6.778;2023-05-07T01:19:18;16.70;99.90
13754;DHT22;6948;51.216;6.778;2023-05-07T01:21:46;16.60;99.90
13754;DHT22;6948;51.216;6.778;2023-05-07T01:24:12;16.70;99.90
13754;DHT22;6948;51.216;6.778;2023-05-07T01:26:38;16.70;99.90
13754;DHT22;6948;51.216;6.778;2023-05-07T01:29:05;16.80;99.90
13754;DHT22;6948;51.216;6.778;2023-05-07T01:31:32;16.70;99.90
13754;DHT22;6948;51.216;6.778;2023-05-07T01:33:59;16.70;99.90
13754;DHT22;6948;51.216;6.778;2023-05-07T01:36:27;16.70;99.90
13754;DHT22;6948;51.216;6.778;2023-05-07T01:38:53;16.80;99.90
13754;DHT22;6948;51.216;6.778;2023-05-07T01:41:20;16.70;99.90
13754;DHT22;6948;51.216;6.778;2023-05-07T01:43:46;16.60;99.90
13754;DHT22;6948;51.216;6.778;2023-05-07T01:46:12;16.60;99.90
13754;DHT22;6948;51.216;6.778;2023-05-07T01:48:39;16.60;99.90
13754;DHT22;6948;51.216;6.778;2023-05-07T01:51:05;16.60;99.90
13754;DHT22;6948;51.216;6.778;2023-05-07T01:53:39;16.60;99.90
13754;DHT22;6948;51.216;6.778;2023-05-07T01:56:06;16.60;99.90
13754;DHT22;6948;51.216;6.778;2023-05-07T01:58:32;16.60;99.90
13754;DHT22;6948;51.216;6.778;2023-05-07T02:00:57;16.60;99.90
13754;DHT22;6948;51.216;6.778;2023-05-07T02:03:23;16.60;99.90
13754;DHT22;6948;51.216;6.778;2023-05-07T02:05:49;16.60;99.90
13754;DHT22;6948;51.216;6.778;2023-05-07T02:08:14;16.50;99.90
13754;DHT22;6948;51.216;6.778;2023-05-07T02:10:40;16.50;99.90
13754;DHT22;6948;51.216;6.778;2023-05-07T02:13:06;16.50;99.90
13754;DHT22;6948;51.216;6.778;2023-05-07T02:15:31;16.50;99.90
13754;DHT22;6948;51.216;6.778;2023-05-07T02:18:07;16.40;99.90
13754;DHT22;6948;51.216;6.778;2023-05-07T02:20:33;16.40;99.90
13754;DHT22;6948;51.216;6.778;2023-05-07T02:22:58;16.40;99.90
13754;DHT22;6948;51.216;6.778;2023-05-07T02:25:24;16.40;99.90
13754;DHT22;6948;51.216;6.778;2023-05-07T02:27:50;16.40;99.90
13754;DHT22;6948;51.216;6.778;2023-05-07T02:30:15;16.30;99.90
13754;DHT22;6948;51.216;6.778;2023-05-07T02:32:44;16.40;99.90
13754;DHT22;6948;51.216;6.778;2023-05-07T02:35:09;16.40;99.90
13754;DHT22;6948;51.216;6.778;2023-05-07T02:37:35;16.40;99.90
13754;DHT22;6948;51.216;6.778;2023-05-07T02:40:01;16.30;99.90
13754;DHT22;6948;51.216;6.778;2023-05-07T02:42:29;16.30;99.90
13754;DHT22;6948;51.216;6.778;2023-05-07T02:44:55;16.30;99.90
13754;DHT22;6948;51.216;6.778;2023-05-07T02:47:21;16.20;99.90
13754;DHT22;6948;51.216;6.778;2023-05-07T02:49:46;16.20;99.90
13754;DHT22;6948;51.216;6.778;2023-05-07T02:52:12;16.10;99.90
13754;DHT22;6948;51.216;6.778;2023-05-07T02:54:38;16.20;99.90
13754;DHT22;6948;51.216;6.778;2023-05-07T02:57:03;16.10;99.90
13754;DHT22;6948;51.216;6.778;2023-05-07T02:59:29;16.10;99.90
13754;DHT22;6948;51.216;6.778;2023-05-07T03:01:54;16.10;99.90
13754;DHT22;6948;51.216;6.778;2023-05-07T03:04:20;16.00;99.90
13754;DHT22;6948;51.216;6.778;2023-05-07T03:06:46;15.90;99.90
13754;DHT22;6948;51.216;6.778;2023-05-07T03:09:11;15.90;99.90
13754;DHT22;6948;51.216;6.778;2023-05-07T03:11:37;15.90;99.90
13754;DHT22;6948;51.216;6.778;2023-05-07T03:14:03;15.90;99.90
13754;DHT22;6948;51.216;6.778;2023-05-07T03:16:28;15.90;99.90
13754;DHT22;6948;51.216;6.778;2023-05-07T03:18:54;16.00;99.90
13754;DHT22;6948;51.216;6.778;2023-05-07T03:21:19;16.00;99.90
13754;DHT22;6948;51.216;6.778;2023-05-07T03:23:45;16.10;99.90
13754;DHT22;6948;51.216;6.778;2023-05-07T03:26:11;16.10;99.90
13754;DHT22;6948;51.216;6.778;2023-05-07T03:28:37;16.10;99.90
13754;DHT22;6948;51.216;6.778;2023-05-07T03:31:03;16.20;99.90
13754;DHT22;6948;51.216;6.778;2023-05-07T03:33:28;16.20;99.90
13754;DHT22;6948;51.216;6.778;2023-05-07T03:35:54;16.10;99.90
13754;DHT22;6948;51.216;6.778;2023-05-07T03:38:20;16.10;99.90
13754;DHT22;6948;51.216;6.778;2023-05-07T03:40:45;16.00;99.90
13754;DHT22;6948;51.216;6.778;2023-05-07T03:43:11;15.90;99.90
13754;DHT22;6948;51.216;6.778;2023-05-07T03:45:36;16.00;99.90
13754;DHT22;6948;51.216;6.778;2023-05-07T03:48:02;16.10;99.90
13754;DHT22;6948;51.216;6.778;2023-05-07T03:50:28;16.10;99.90
13754;DHT22;6948;51.216;6.778;2023-05-07T03:52:54;16.10;99.90
13754;DHT22;6948;51.216;6.778;2023-05-07T03:55:19;16.10;99.90
13754;DHT22;6948;51.216;6.778;2023-05-07T03:57:45;16.10;99.90
13754;DHT22;6948;51.216;6.778;2023-05-07T04:00:11;16.00;99.90
13754;DHT22;6948;51.216;6.778;2023-05-07T04:02:37;16.00;99.90
13754;DHT22;6948;51.216;6.778;2023-05-07T04:05:03;15.90;99.90
13754;DHT22;6948;51.216;6.778;2023-05-07T04:07:28;16.00;99.90
13754;DHT22;6948;51.216;6.778;2023-05-07T04:09:54;16.00;99.90
13754;DHT22;6948;51.216;6.778;2023-05-07T04:12:19;15.90;99.90
13754;DHT22;6948;51.216;6.778;2023-05-07T04:14:45;15.90;99.90
13754;DHT22;6948;51.216;6.778;2023-05-07T04:17:10;15.90;99.90
13754;DHT22;6948;51.216;6.778;2023-05-07T04:19:36;15.90;99.90
13754;DHT22;6948;51.216;6.778;2023-05-07T04:22:02;15.90;99.90
13754;DHT22;6948;51.216;6.778;2023-05-07T04:24:30;15.80;99.90
13754;DHT22;6948;51.216;6.778;2023-05-07T04:26:56;15.90;99.90
13754;DHT22;6948;51.216;6.778;2023-05-07T04:29:23;16.00;99.90
13754;DHT22;6948;51.216;6.778;2023-05-07T04:31:49;16.10;99.90
13754;DHT22;6948;51.216;6.778;2023-05-07T04:34:15;16.10;99.90
13754;DHT22;6948;51.216;6.778;2023-05-07T04:36:42;16.20;99.90
13754;DHT22;6948;51.216;6.778;2023-05-07T04:39:08;16.30;99.90
13754;DHT22;6948;51.216;6.778;2023-05-07T04:41:35;16.30;99.90
13754;DHT22;6948;51.216;6.778;2023-05-07T04:44:01;16.30;99.90
13754;DHT22;6948;51.216;6.778;2023-05-07T04:46:35;16.30;99.90
13754;DHT22;6948;51.216;6.778;2023-05-07T04:49:03;16.30;99.90
13754;DHT22;6948;51.216;6.778;2023-05-07T04:51:29;16.40;99.90
13754;DHT22;6948;51.216;6.778;2023-05-07T04:53:55;16.40;99.90
13754;DHT22;6948;51.216;6.778;2023-05-07T04:56:21;16.50;99.90
13754;DHT22;6948;51.216;6.778;2023-05-07T04:58:47;16.50;99.90
13754;DHT22;6948;51.216;6.778;2023-05-07T05:01:12;16.50;99.90
13754;DHT22;6948;51.216;6.778;2023-05-07T05:03:38;16.40;99.90
13754;DHT22;6948;51.216;6.778;2023-05-07T05:06:05;16.40;99.90
13754;DHT22;6948;51.216;6.778;2023-05-07T05:08:31;16.50;99.90
13754;DHT22;6948;51.216;6.778;2023-05-07T05:10:56;16.50;99.90
13754;DHT22;6948;51.216;6.778;2023-05-07T05:13:22;16.50;99.90
13754;DHT22;6948;51.216;6.778;2023-05-07T05:15:48;16.50;99.90
13754;DHT22;6948;51.216;6.778;2023-05-07T05:18:13;16.50;99.90
13754;DHT22;6948;51.216;6.778;2023-05-07T05:20:39;16.60;99.90
13754;DHT22;6948;51.216;6.778;2023-05-07T05:23:05;16.60;99.90
13754;DHT22;6948;51.216;6.778;2023-05-07T05:25:31;16.70;99.90
13754;DHT22;6948;51.216;6.778;2023-05-07T05:27:56;16.70;99.90
13754;DHT22;6948;51.216;6.778;2023-05-07T05:30:22;16.70;99.90
13754;DHT22;6948;51.216;6.778;2023-05-07T05:32:48;16.80;99.90
13754;DHT22;6948;51.216;6.778;2023-05-07T05:35:14;16.70;99.90
13754;DHT22;6948;51.216;6.778;2023-05-07T05:37:39;16.70;99.90
13754;DHT22;6948;51.216;6.778;2023-05-07T05:40:05;16.80;99.90
13754;DHT22;6948;51.216;6.778;2023-05-07T05:42:31;16.80;99.90
13754;DHT22;6948;51.216;6.778;2023-05-07T05:44:57;16.80;99.90
13754;DHT22;6948;51.216;6.778;2023-05-07T05:47:22;16.90;99.90
13754;DHT22;6948;51.216;6.778;2023-05-07T05:49:48;17.00;99.90
13754;DHT22;6948;51.216;6.778;2023-05-07T05:52:14;17.00;99.90
13754;DHT22;6948;51.216;6.778;2023-05-07T05:54:40;16.90;99.90
13754;DHT22;6948;51.216;6.778;2023-05-07T05:57:05;17.00;99.90
13754;DHT22;6948;51.216;6.778;2023-05-07T05:59:31;17.10;99.90
13754;DHT22;6948;51.216;6.778;2023-05-07T06:01:57;17.10;99.90
13754;DHT22;6948;51.216;6.778;2023-05-07T06:04:22;17.10;99.90
13754;DHT22;6948;51.216;6.778;2023-05-07T06:06:48;17.10;99.90
13754;DHT22;6948;51.216;6.778;2023-05-07T06:09:14;17.20;99.90
13754;DHT22;6948;51.216;6.778;2023-05-07T06:11:39;17.20;99.90
13754;DHT22;6948;51.216;6.778;2023-05-07T06:14:06;17.30;99.90
13754;DHT22;6948;51.216;6.778;2023-05-07T06:16:31;17.20;99.90
13754;DHT22;6948;51.216;6.778;2023-05-07T06:18:57;17.30;99.90
13754;DHT22;6948;51.216;6.778;2023-05-07T06:21:23;17.40;99.90
13754;DHT22;6948;51.216;6.778;2023-05-07T06:23:48;17.40;99.90
13754;DHT22;6948;51.216;6.778;2023-05-07T06:26:14;17.40;99.90
13754;DHT22;6948;51.216;6.778;2023-05-07T06:28:40;17.50;99.90
13754;DHT22;6948;51.216;6.778;2023-05-07T06:33:49;17.70;99.90
13754;DHT22;6948;51.216;6.778;2023-05-07T06:36:15;17.80;99.90
13754;DHT22;6948;51.216;6.778;2023-05-07T06:38:41;17.80;99.90
13754;DHT22;6948;51.216;6.778;2023-05-07T06:41:07;17.80;99.90
13754;DHT22;6948;51.216;6.778;2023-05-07T06:43:33;17.80;99.90
13754;DHT22;6948;51.216;6.778;2023-05-07T06:45:59;17.80;99.90
13754;DHT22;6948;51.216;6.778;2023-05-07T06:48:24;17.90;99.90
13754;DHT22;6948;51.216;6.778;2023-05-07T06:50:50;17.90;99.90
13754;DHT22;6948;51.216;6.778;2023-05-07T06:53:16;18.10;99.90
13754;DHT22;6948;51.216;6.778;2023-05-07T06:55:41;18.10;99.90
13754;DHT22;6948;51.216;6.778;2023-05-07T06:58:07;18.30;99.90
13754;DHT22;6948;51.216;6.778;2023-05-07T07:00:33;18.30;99.90
13754;DHT22;6948;51.216;6.778;2023-05-07T07:02:58;18.30;99.90
13754;DHT22;6948;51.216;6.778;2023-05-07T07:05:25;18.40;99.90
13754;DHT22;6948;51.216;6.778;2023-05-07T07:07:51;18.50;99.90
13754;DHT22;6948;51.216;6.778;2023-05-07T07:10:20;18.40;99.90
13754;DHT22;6948;51.216;6.778;2023-05-07T07:12:45;18.60;99.90
13754;DHT22;6948;51.216;6.778;2023-05-07T07:15:11;18.80;99.90
13754;DHT22;6948;51.216;6.778;2023-05-07T07:17:37;19.00;99.90
13754;DHT22;6948;51.216;6.778;2023-05-07T07:20:03;19.10;99.90
13754;DHT22;6948;51.216;6.778;2023-05-07T07:22:29;19.10;99.90
13754;DHT22;6948;51.216;6.778;2023-05-07T07:24:54;19.20;99.90
13754;DHT22;6948;51.216;6.778;2023-05-07T07:27:20;19.30;99.90
13754;DHT22;6948;51.216;6.778;2023-05-07T07:29:46;19.40;99.90
13754;DHT22;6948;51.216;6.778;2023-05-07T07:32:11;19.40;99.90
13754;DHT22;6948;51.216;6.778;2023-05-07T07:34:37;19.30;99.90
13754;DHT22;6948;51.216;6.778;2023-05-07T07:37:02;19.20;99.90
13754;DHT22;6948;51.216;6.778;2023-05-07T07:39:32;19.20;99.90
13754;DHT22;6948;51.216;6.778;2023-05-07T07:41:57;19.20;99.90
13754;DHT22;6948;51.216;6.778;2023-05-07T07:44:23;19.40;99.90
13754;DHT22;6948;51.216;6.778;2023-05-07T07:46:49;19.30;99.90
13754;DHT22;6948;51.216;6.778;2023-05-07T07:49:15;19.40;99.90
13754;DHT22;6948;51.216;6.778;2023-05-07T07:51:40;19.30;99.90
13754;DHT22;6948;51.216;6.778;2023-05-07T07:54:06;19.10;99.90
13754;DHT22;6948;51.216;6.778;2023-05-07T07:56:32;19.10;99.90
13754;DHT22;6948;51.216;6.778;2023-05-07T07:58:59;19.10;99.90
13754;DHT22;6948;51.216;6.778;2023-05-07T08:01:24;19.10;99.90
13754;DHT22;6948;51.216;6.778;2023-05-07T08:03:51;19.30;99.90
13754;DHT22;6948;51.216;6.778;2023-05-07T08:06:16;19.60;99.90
13754;DHT22;6948;51.216;6.778;2023-05-07T08:08:42;19.70;99.90
13754;DHT22;6948;51.216;6.778;2023-05-07T08:11:08;19.90;99.90
13754;DHT22;6948;51.216;6.778;2023-05-07T08:13:34;20.00;99.90
13754;DHT22;6948;51.216;6.778;2023-05-07T08:16:00;19.90;99.90
13754;DHT22;6948;51.216;6.778;2023-05-07T08:18:25;20.00;99.90
13754;DHT22;6948;51.216;6.778;2023-05-07T08:20:53;20.00;99.90
13754;DHT22;6948;51.216;6.778;2023-05-07T08:23:19;19.90;99.90
13754;DHT22;6948;51.216;6.778;2023-05-07T08:25:45;19.80;99.90
13754;DHT22;6948;51.216;6.778;2023-05-07T08:28:10;20.00;99.90
13754;DHT22;6948;51.216;6.778;2023-05-07T08:30:36;20.10;99.90
13754;DHT22;6948;51.216;6.778;2023-05-07T08:33:02;20.00;99.90
13754;DHT22;6948;51.216;6.778;2023-05-07T08:35:27;20.10;99.90
13754;DHT22;6948;51.216;6.778;2023-05-07T08:37:53;20.20;99.90
13754;DHT22;6948;51.216;6.778;2023-05-07T08:40:21;20.30;99.90
13754;DHT22;6948;51.216;6.778;2023-05-07T08:42:49;20.40;99.90
13754;DHT22;6948;51.216;6.778;2023-05-07T08:45:17;20.50;99.90
13754;DHT22;6948;51.216;6.778;2023-05-07T08:47:44;20.60;99.90
13754;DHT22;6948;51.216;6.778;2023-05-07T08:50:12;20.80;99.90
13754;DHT22;6948;51.216;6.778;2023-05-07T08:52:39;20.90;99.90
13754;DHT22;6948;51.216;6.778;2023-05-07T08:55:07;20.90;99.90
13754;DHT22;6948;51.216;6.778;2023-05-07T08:57:33;21.00;99.90
13754;DHT22;6948;51.216;6.778;2023-05-07T08:59:58;21.00;99.90
13754;DHT22;6948;51.216;6.778;2023-05-07T09:02:24;21.00;99.90
13754;DHT22;6948;51.216;6.778;2023-05-07T09:04:50;21.00;99.90
13754;DHT22;6948;51.216;6.778;2023-05-07T09:07:16;21.10;99.90
13754;DHT22;6948;51.216;6.778;2023-05-07T09:09:44;20.90;99.90
13754;DHT22;6948;51.216;6.778;2023-05-07T09:12:09;20.80;99.90
13754;DHT22;6948;51.216;6.778;2023-05-07T09:14:35;20.80;99.90
13754;DHT22;6948;51.216;6.778;2023-05-07T09:17:01;20.90;99.90
13754;DHT22;6948;51.216;6.778;2023-05-07T09:19:27;20.90;99.90
13754;DHT22;6948;51.216;6.778;2023-05-07T09:22:02;20.90;99.90
13754;DHT22;6948;51.216;6.778;2023-05-07T09:24:28;21.00;99.90
13754;DHT22;6948;51.216;6.778;2023-05-07T09:26:59;21.20;99.90
13754;DHT22;6948;51.216;6.778;2023-05-07T09:29:25;21.00;99.90
13754;DHT22;6948;51.216;6.778;2023-05-07T09:31:51;21.00;99.90
13754;DHT22;6948;51.216;6.778;2023-05-07T09:34:17;20.90;99.90
13754;DHT22;6948;51.216;6.778;2023-05-07T09:36:42;20.90;99.90
13754;DHT22;6948;51.216;6.778;2023-05-07T09:39:08;21.00;99.90
13754;DHT22;6948;51.216;6.778;2023-05-07T09:41:43;21.00;99.90
13754;DHT22;6948;51.216;6.778;2023-05-07T09:44:09;21.00;99.90
13754;DHT22;6948;51.216;6.778;2023-05-07T09:46:36;21.20;99.90
13754;DHT22;6948;51.216;6.778;2023-05-07T09:49:06;21.30;99.90
13754;DHT22;6948;51.216;6.778;2023-05-07T09:54:17;21.60;99.90
13754;DHT22;6948;51.216;6.778;2023-05-07T09:56:44;21.60;99.90
13754;DHT22;6948;51.216;6.778;2023-05-07T09:59:13;21.60;99.90
13754;DHT22;6948;51.216;6.778;2023-05-07T10:01:42;21.80;99.90
13754;DHT22;6948;51.216;6.778;2023-05-07T10:04:08;22.00;99.90
13754;DHT22;6948;51.216;6.778;2023-05-07T10:06:35;22.30;99.90
13754;DHT22;6948;51.216;6.778;2023-05-07T10:09:02;22.40;99.90
13754;DHT22;6948;51.216;6.778;2023-05-07T10:11:28;22.40;99.90
13754;DHT22;6948;51.216;6.778;2023-05-07T10:13:54;22.50;99.90
13754;DHT22;6948;51.216;6.778;2023-05-07T10:16:21;22.50;99.90
13754;DHT22;6948;51.216;6.778;2023-05-07T10:18:46;22.60;99.90
13754;DHT22;6948;51.216;6.778;2023-05-07T10:26:35;22.90;99.90
13754;DHT22;6948;51.216;6.778;2023-05-07T10:29:07;23.10;99.90
13754;DHT22;6948;51.216;6.778;2023-05-07T10:34:27;23.20;99.90
13754;DHT22;6948;51.216;6.778;2023-05-07T10:36:54;23.10;99.90
13754;DHT22;6948;51.216;6.778;2023-05-07T10:39:21;23.00;99.90
13754;DHT22;6948;51.216;6.778;2023-05-07T10:41:48;22.80;99.90
13754;DHT22;6948;51.216;6.778;2023-05-07T10:44:27;22.80;99.90
13754;DHT22;6948;51.216;6.778;2023-05-07T10:52:24;22.90;99.90
13754;DHT22;6948;51.216;6.778;2023-05-07T10:57:52;23.10;99.90
13754;DHT22;6948;51.216;6.778;2023-05-07T11:05:38;23.30;99.90
13754;DHT22;6948;51.216;6.778;2023-05-07T11:08:05;23.80;99.90
13754;DHT22;6948;51.216;6.778;2023-05-07T11:10:52;23.80;99.90
13754;DHT22;6948;51.216;6.778;2023-05-07T11:13:41;23.90;99.90
13754;DHT22;6948;51.216;6.778;2023-05-07T11:16:17;23.70;99.90
13754;DHT22;6948;51.216;6.778;2023-05-07T11:18:48;23.70;99.90
13754;DHT22;6948;51.216;6.778;2023-05-07T11:21:37;23.70;99.90
13754;DHT22;6948;51.216;6.778;2023-05-07T11:24:04;23.80;99.90
13754;DHT22;6948;51.216;6.778;2023-05-07T11:26:41;23.70;99.90
13754;DHT22;6948;51.216;6.778;2023-05-07T11:29:12;23.70;99.90
13754;DHT22;6948;51.216;6.778;2023-05-07T11:31:38;23.80;99.90
13754;DHT22;6948;51.216;6.778;2023-05-07T11:34:04;23.60;99.90
13754;DHT22;6948;51.216;6.778;2023-05-07T11:36:32;23.50;99.90
13754;DHT22;6948;51.216;6.778;2023-05-07T11:38:58;23.40;99.90
13754;DHT22;6948;51.216;6.778;2023-05-07T11:41:34;23.30;99.90
13754;DHT22;6948;51.216;6.778;2023-05-07T11:44:01;23.40;99.90
13754;DHT22;6948;51.216;6.778;2023-05-07T11:46:27;23.30;99.90
13754;DHT22;6948;51.216;6.778;2023-05-07T11:48:53;23.30;99.90
13754;DHT22;6948;51.216;6.778;2023-05-07T11:51:21;23.30;99.90
13754;DHT22;6948;51.216;6.778;2023-05-07T11:53:47;23.30;99.90
13754;DHT22;6948;51.216;6.778;2023-05-07T11:56:14;23.40;99.90
13754;DHT22;6948;51.216;6.778;2023-05-07T11:58:41;23.40;99.90
13754;DHT22;6948;51.216;6.778;2023-05-07T12:01:08;23.40;99.90
13754;DHT22;6948;51.216;6.778;2023-05-07T12:03:36;23.20;99.90
13754;DHT22;6948;51.216;6.778;2023-05-07T12:06:05;23.10;99.90
13754;DHT22;6948;51.216;6.778;2023-05-07T12:08:31;23.00;99.90
13754;DHT22;6948;51.216;6.778;2023-05-07T12:10:57;22.90;99.90
13754;DHT22;6948;51.216;6.778;2023-05-07T12:13:25;22.90;99.90
13754;DHT22;6948;51.216;6.778;2023-05-07T12:15:52;22.90;99.90
13754;DHT22;6948;51.216;6.778;2023-05-07T12:18:18;22.90;99.90
13754;DHT22;6948;51.216;6.778;2023-05-07T12:20:44;23.00;99.90
13754;DHT22;6948;51.216;6.778;2023-05-07T12:23:10;22.90;99.90
13754;DHT22;6948;51.216;6.778;2023-05-07T12:25:38;22.90;99.90
13754;DHT22;6948;51.216;6.778;2023-05-07T12:28:05;22.80;99.90
13754;DHT22;6948;51.216;6.778;2023-05-07T12:30:32;22.70;99.90
13754;DHT22;6948;51.216;6.778;2023-05-07T12:32:58;22.60;99.90
13754;DHT22;6948;51.216;6.778;2023-05-07T12:35:29;22.60;99.90
13754;DHT22;6948;51.216;6.778;2023-05-07T12:37:56;22.70;99.90
13754;DHT22;6948;51.216;6.778;2023-05-07T12:40:24;22.60;99.90
13754;DHT22;6948;51.216;6.778;2023-05-07T12:42:53;22.60;99.90
13754;DHT22;6948;51.216;6.778;2023-05-07T12:45:20;22.70;99.90
13754;DHT22;6948;51.216;6.778;2023-05-07T12:47:47;22.70;99.90
13754;DHT22;6948;51.216;6.778;2023-05-07T12:50:14;22.80;99.90
13754;DHT22;6948;51.216;6.778;2023-05-07T12:52:40;22.80;99.90
13754;DHT22;6948;51.216;6.778;2023-05-07T12:55:07;22.90;99.90
13754;DHT22;6948;51.216;6.778;2023-05-07T12:57:42;23.00;99.90
13754;DHT22;6948;51.216;6.778;2023-05-07T13:00:08;22.90;99.90
13754;DHT22;6948;51.216;6.778;2023-05-07T13:02:37;22.90;99.90
13754;DHT22;6948;51.216;6.778;2023-05-07T13:05:04;22.90;99.90
13754;DHT22;6948;51.216;6.778;2023-05-07T13:07:29;23.00;99.90
13754;DHT22;6948;51.216;6.778;2023-05-07T13:09:55;22.90;99.90
13754;DHT22;6948;51.216;6.778;2023-05-07T13:12:21;23.00;99.90
13754;DHT22;6948;51.216;6.778;2023-05-07T13:14:46;22.80;99.90
13754;DHT22;6948;51.216;6.778;2023-05-07T13:17:12;22.80;99.90
13754;DHT22;6948;51.216;6.778;2023-05-07T13:19:37;22.80;99.90
13754;DHT22;6948;51.216;6.778;2023-05-07T13:22:03;22.70;99.90
13754;DHT22;6948;51.216;6.778;2023-05-07T13:24:29;22.60;99.90
13754;DHT22;6948;51.216;6.778;2023-05-07T13:26:55;22.60;99.90
13754;DHT22;6948;51.216;6.778;2023-05-07T13:29:21;22.40;99.90
13754;DHT22;6948;51.216;6.778;2023-05-07T13:31:54;22.30;99.90
13754;DHT22;6948;51.216;6.778;2023-05-07T13:34:20;22.20;99.90
13754;DHT22;6948;51.216;6.778;2023-05-07T13:36:45;22.00;99.90
13754;DHT22;6948;51.216;6.778;2023-05-07T13:39:11;22.10;99.90
13754;DHT22;6948;51.216;6.778;2023-05-07T13:41:37;22.00;99.90
13754;DHT22;6948;51.216;6.778;2023-05-07T13:44:02;21.90;99.90
13754;DHT22;6948;51.216;6.778;2023-05-07T13:46:28;21.90;99.90
13754;DHT22;6948;51.216;6.778;2023-05-07T13:48:55;21.80;99.90
13754;DHT22;6948;51.216;6.778;2023-05-07T13:51:21;21.70;99.90
13754;DHT22;6948;51.216;6.778;2023-05-07T13:53:47;21.50;99.90
13754;DHT22;6948;51.216;6.778;2023-05-07T13:56:13;21.40;99.90
13754;DHT22;6948;51.216;6.778;2023-05-07T13:58:39;21.20;99.90
13754;DHT22;6948;51.216;6.778;2023-05-07T14:01:05;21.10;99.90
13754;DHT22;6948;51.216;6.778;2023-05-07T14:03:31;21.00;99.90
13754;DHT22;6948;51.216;6.778;2023-05-07T14:05:59;20.90;99.90
13754;DHT22;6948;51.216;6.778;2023-05-07T14:08:27;20.80;99.90
13754;DHT22;6948;51.216;6.778;2023-05-07T14:10:53;20.70;99.90
13754;DHT22;6948;51.216;6.778;2023-05-07T14:13:18;20.60;99.90
13754;DHT22;6948;51.216;6.778;2023-05-07T14:15:44;20.50;99.90
13754;DHT22;6948;51.216;6.778;2023-05-07T14:18:12;20.50;99.90
13754;DHT22;6948;51.216;6.778;2023-05-07T14:20:38;20.30;99.90
13754;DHT22;6948;51.216;6.778;2023-05-07T14:23:04;20.20;99.90
13754;DHT22;6948;51.216;6.778;2023-05-07T14:25:29;20.10;99.90
13754;DHT22;6948;51.216;6.778;2023-05-07T14:27:55;20.10;99.90
13754;DHT22;6948;51.216;6.778;2023-05-07T14:30:21;20.00;99.90
13754;DHT22;6948;51.216;6.778;2023-05-07T14:32:50;19.80;99.90
13754;DHT22;6948;51.216;6.778;2023-05-07T14:35:16;19.70;99.90
13754;DHT22;6948;51.216;6.778;2023-05-07T14:37:41;19.50;99.90
13754;DHT22;6948;51.216;6.778;2023-05-07T14:40:07;19.30;99.90
13754;DHT22;6948;51.216;6.778;2023-05-07T14:42:33;19.20;99.90
13754;DHT22;6948;51.216;6.778;2023-05-07T14:44:59;19.10;99.90
13754;DHT22;6948;51.216;6.778;2023-05-07T14:47:25;19.10;99.90
13754;DHT22;6948;51.216;6.778;2023-05-07T14:49:50;19.10;99.90
13754;DHT22;6948;51.216;6.778;2023-05-07T14:52:16;19.20;99.90
13754;DHT22;6948;51.216;6.778;2023-05-07T14:54:42;19.00;99.90
13754;DHT22;6948;51.216;6.778;2023-05-07T14:57:10;19.00;99.90
13754;DHT22;6948;51.216;6.778;2023-05-07T14:59:37;18.90;99.90
13754;DHT22;6948;51.216;6.778;2023-05-07T15:02:03;18.80;99.90
13754;DHT22;6948;51.216;6.778;2023-05-07T15:04:30;18.80;99.90
13754;DHT22;6948;51.216;6.778;2023-05-07T15:06:56;18.80;99.90
13754;DHT22;6948;51.216;6.778;2023-05-07T15:09:21;18.80;99.90
13754;DHT22;6948;51.216;6.778;2023-05-07T15:11:47;18.90;99.90
13754;DHT22;6948;51.216;6.778;2023-05-07T15:14:13;19.00;99.90
13754;DHT22;6948;51.216;6.778;2023-05-07T15:16:38;19.10;99.90
13754;DHT22;6948;51.216;6.778;2023-05-07T15:19:04;19.10;99.90
13754;DHT22;6948;51.216;6.778;2023-05-07T15:21:30;19.10;99.90
13754;DHT22;6948;51.216;6.778;2023-05-07T15:23:58;19.00;99.90
13754;DHT22;6948;51.216;6.778;2023-05-07T15:26:23;19.00;99.90
13754;DHT22;6948;51.216;6.778;2023-05-07T15:28:50;19.00;99.90
13754;DHT22;6948;51.216;6.778;2023-05-07T15:31:16;19.10;99.90
13754;DHT22;6948;51.216;6.778;2023-05-07T15:33:42;19.30;99.90
13754;DHT22;6948;51.216;6.778;2023-05-07T15:36:08;19.30;99.90
13754;DHT22;6948;51.216;6.778;2023-05-07T15:38:34;19.40;99.90
13754;DHT22;6948;51.216;6.778;2023-05-07T15:40:59;19.40;99.90
13754;DHT22;6948;51.216;6.778;2023-05-07T15:43:25;19.40;99.90
13754;DHT22;6948;51.216;6.778;2023-05-07T15:45:51;19.50;99.90
13754;DHT22;6948;51.216;6.778;2023-05-07T15:48:17;19.60;99.90
13754;DHT22;6948;51.216;6.778;2023-05-07T15:50:42;19.60;99.90
13754;DHT22;6948;51.216;6.778;2023-05-07T15:53:08;19.60;99.90
13754;DHT22;6948;51.216;6.778;2023-05-07T15:55:34;19.60;99.90
13754;DHT22;6948;51.216;6.778;2023-05-07T15:58:00;19.70;99.90
13754;DHT22;6948;51.216;6.778;2023-05-07T16:00:26;19.70;99.90
13754;DHT22;6948;51.216;6.778;2023-05-07T16:02:53;19.60;99.90
13754;DHT22;6948;51.216;6.778;2023-05-07T16:05:19;19.70;99.90
13754;DHT22;6948;51.216;6.778;2023-05-07T16:07:45;19.70;99.90